Jump to content

Sign in to follow this  
brucek

Low level turbulence from METAR

Recommended Posts

I noted that today's METAR in Melbourne YMML is:YMML 231800Z 36026KT CAVOK 09/05 Q1022 FM1800 MOD/SEV TURB BLW 5000FTYMML 231730Z 36023KT CAVOK 09/05 Q1023 FM1730 MOD/SEV TURB BLW 5000FTYMML 231700Z 36021KT CAVOK 09/05 Q1023 FM1700 MOD/SEV TURB BLW 5000FTYMML 231630Z 36020KT CAVOK 09/05 Q1023 FM1630 MOD/SEV TURB BLW 5000FTDoes ASX detect the note for mod/sev turbulence below 5,000' and introduce it to FSX? The winds look steady (although a strong speed), so gusting and directional variability won't have that effect.Thanks, Bruce.


ASEL, Instrument.

KBJC, Colorado.

Share this post


Link to post
Share on other sites

Join the conversation

You can post now and register later. If you have an account, sign in now to post with your account.
Note: Your post will require moderator approval before it will be visible.

Guest
Reply to this topic...

×   Pasted as rich text.   Paste as plain text instead

  Only 75 emoji are allowed.

×   Your link has been automatically embedded.   Display as a link instead

×   Your previous content has been restored.   Clear editor

×   You cannot paste images directly. Upload or insert images from URL.

Sign in to follow this  

×
×
  • Create New...